sensor_id;sensor_type;location;lat;lon;timestamp;P1;durP1;ratioP1;P2;durP2;ratioP2
72639;SDS011;60683;51.730;8.762;2023-02-27T00:00:01;6.88;;;2.95;;
72639;SDS011;60683;51.730;8.762;2023-02-27T00:02:30;4.72;;;2.20;;
72639;SDS011;60683;51.730;8.762;2023-02-27T00:04:57;7.75;;;2.88;;
72639;SDS011;60683;51.730;8.762;2023-02-27T00:07:25;4.97;;;2.70;;
72639;SDS011;60683;51.730;8.762;2023-02-27T00:09:53;4.70;;;2.60;;
72639;SDS011;60683;51.730;8.762;2023-02-27T00:12:22;7.35;;;2.72;;
72639;SDS011;60683;51.730;8.762;2023-02-27T00:14:50;6.20;;;2.78;;
72639;SDS011;60683;51.730;8.762;2023-02-27T00:17:17;4.88;;;2.30;;
72639;SDS011;60683;51.730;8.762;2023-02-27T00:19:45;4.47;;;2.33;;
72639;SDS011;60683;51.730;8.762;2023-02-27T00:22:12;8.23;;;3.28;;
72639;SDS011;60683;51.730;8.762;2023-02-27T00:24:39;6.78;;;4.30;;
72639;SDS011;60683;51.730;8.762;2023-02-27T00:27:07;4.72;;;2.53;;
72639;SDS011;60683;51.730;8.762;2023-02-27T00:29:36;8.43;;;2.42;;
72639;SDS011;60683;51.730;8.762;2023-02-27T00:32:03;6.07;;;2.65;;
72639;SDS011;60683;51.730;8.762;2023-02-27T00:34:31;4.22;;;2.05;;
72639;SDS011;60683;51.730;8.762;2023-02-27T00:36:58;6.10;;;1.55;;
72639;SDS011;60683;51.730;8.762;2023-02-27T00:39:25;5.05;;;2.53;;
72639;SDS011;60683;51.730;8.762;2023-02-27T00:41:53;4.15;;;2.38;;
72639;SDS011;60683;51.730;8.762;2023-02-27T00:44:20;4.32;;;2.22;;
72639;SDS011;60683;51.730;8.762;2023-02-27T00:46:49;4.78;;;1.92;;
72639;SDS011;60683;51.730;8.762;2023-02-27T00:49:17;5.13;;;2.10;;
72639;SDS011;60683;51.730;8.762;2023-02-27T00:51:44;5.80;;;2.17;;
72639;SDS011;60683;51.730;8.762;2023-02-27T00:54:12;4.22;;;2.38;;
72639;SDS011;60683;51.730;8.762;2023-02-27T00:56:39;4.40;;;2.70;;
72639;SDS011;60683;51.730;8.762;2023-02-27T00:59:07;3.85;;;2.15;;
72639;SDS011;60683;51.730;8.762;2023-02-27T01:01:35;6.70;;;2.60;;
72639;SDS011;60683;51.730;8.762;2023-02-27T01:04:04;3.88;;;2.40;;
72639;SDS011;60683;51.730;8.762;2023-02-27T01:06:31;7.57;;;2.50;;
72639;SDS011;60683;51.730;8.762;2023-02-27T01:08:59;5.07;;;2.30;;
72639;SDS011;60683;51.730;8.762;2023-02-27T01:11:26;3.85;;;2.15;;
72639;SDS011;60683;51.730;8.762;2023-02-27T01:13:54;6.40;;;2.60;;
72639;SDS011;60683;51.730;8.762;2023-02-27T01:16:21;5.50;;;2.53;;
72639;SDS011;60683;51.730;8.762;2023-02-27T01:18:49;3.42;;;2.15;;
72639;SDS011;60683;51.730;8.762;2023-02-27T01:21:18;5.40;;;2.55;;
72639;SDS011;60683;51.730;8.762;2023-02-27T01:23:45;7.75;;;3.85;;
72639;SDS011;60683;51.730;8.762;2023-02-27T01:26:13;9.77;;;2.63;;
72639;SDS011;60683;51.730;8.762;2023-02-27T01:28:40;4.35;;;2.35;;
72639;SDS011;60683;51.730;8.762;2023-02-27T01:31:08;4.53;;;2.05;;
72639;SDS011;60683;51.730;8.762;2023-02-27T01:33:35;4.82;;;2.42;;
72639;SDS011;60683;51.730;8.762;2023-02-27T01:36:03;4.72;;;2.33;;
72639;SDS011;60683;51.730;8.762;2023-02-27T01:38:32;5.15;;;2.22;;
72639;SDS011;60683;51.730;8.762;2023-02-27T01:41:00;5.55;;;2.20;;
72639;SDS011;60683;51.730;8.762;2023-02-27T01:43:28;5.88;;;2.40;;
72639;SDS011;60683;51.730;8.762;2023-02-27T01:45:55;5.10;;;2.20;;
72639;SDS011;60683;51.730;8.762;2023-02-27T01:48:24;4.45;;;1.80;;
72639;SDS011;60683;51.730;8.762;2023-02-27T01:50:55;6.55;;;2.08;;
72639;SDS011;60683;51.730;8.762;2023-02-27T01:53:24;5.45;;;2.13;;
72639;SDS011;60683;51.730;8.762;2023-02-27T01:55:54;5.13;;;2.67;;
72639;SDS011;60683;51.730;8.762;2023-02-27T01:58:24;4.32;;;2.15;;
72639;SDS011;60683;51.730;8.762;2023-02-27T02:00:52;8.40;;;2.30;;
72639;SDS011;60683;51.730;8.762;2023-02-27T02:03:22;2.90;;;1.55;;
72639;SDS011;60683;51.730;8.762;2023-02-27T02:05:53;5.32;;;1.90;;
72639;SDS011;60683;51.730;8.762;2023-02-27T02:08:22;3.03;;;1.67;;
72639;SDS011;60683;51.730;8.762;2023-02-27T02:10:51;5.40;;;1.92;;
72639;SDS011;60683;51.730;8.762;2023-02-27T02:13:21;5.45;;;2.22;;
72639;SDS011;60683;51.730;8.762;2023-02-27T02:15:51;4.82;;;2.40;;
72639;SDS011;60683;51.730;8.762;2023-02-27T02:18:28;3.55;;;1.65;;
72639;SDS011;60683;51.730;8.762;2023-02-27T02:27:44;4.80;;;1.90;;
72639;SDS011;60683;51.730;8.762;2023-02-27T02:39:41;7.15;;;2.53;;
72639;SDS011;60683;51.730;8.762;2023-02-27T02:42:15;5.15;;;2.20;;
72639;SDS011;60683;51.730;8.762;2023-02-27T02:44:48;4.75;;;1.80;;
72639;SDS011;60683;51.730;8.762;2023-02-27T02:47:22;3.05;;;1.50;;
72639;SDS011;60683;51.730;8.762;2023-02-27T02:49:55;3.80;;;1.42;;
72639;SDS011;60683;51.730;8.762;2023-02-27T02:52:26;2.25;;;1.10;;
72639;SDS011;60683;51.730;8.762;2023-02-27T02:55:00;1.98;;;1.00;;
72639;SDS011;60683;51.730;8.762;2023-02-27T02:57:29;4.60;;;1.85;;
72639;SDS011;60683;51.730;8.762;2023-02-27T02:59:59;3.85;;;1.80;;
72639;SDS011;60683;51.730;8.762;2023-02-27T03:02:30;3.28;;;1.40;;
72639;SDS011;60683;51.730;8.762;2023-02-27T03:05:01;2.80;;;1.13;;
72639;SDS011;60683;51.730;8.762;2023-02-27T03:07:32;5.28;;;1.77;;
72639;SDS011;60683;51.730;8.762;2023-02-27T03:10:03;2.85;;;1.80;;
72639;SDS011;60683;51.730;8.762;2023-02-27T03:12:35;3.78;;;1.73;;
72639;SDS011;60683;51.730;8.762;2023-02-27T03:17:37;2.75;;;1.27;;
72639;SDS011;60683;51.730;8.762;2023-02-27T03:20:07;4.30;;;1.35;;
72639;SDS011;60683;51.730;8.762;2023-02-27T03:25:07;4.45;;;1.63;;
72639;SDS011;60683;51.730;8.762;2023-02-27T03:27:36;3.30;;;1.33;;
72639;SDS011;60683;51.730;8.762;2023-02-27T03:30:06;4.53;;;2.33;;
72639;SDS011;60683;51.730;8.762;2023-02-27T03:32:37;4.78;;;1.60;;
72639;SDS011;60683;51.730;8.762;2023-02-27T03:35:08;4.47;;;1.85;;
72639;SDS011;60683;51.730;8.762;2023-02-27T03:37:38;3.42;;;1.30;;
72639;SDS011;60683;51.730;8.762;2023-02-27T03:40:16;4.25;;;2.20;;
72639;SDS011;60683;51.730;8.762;2023-02-27T03:42:49;9.50;;;1.35;;
72639;SDS011;60683;51.730;8.762;2023-02-27T03:45:22;6.55;;;2.25;;
72639;SDS011;60683;51.730;8.762;2023-02-27T03:47:55;3.13;;;1.30;;
72639;SDS011;60683;51.730;8.762;2023-02-27T03:50:23;2.47;;;1.42;;
72639;SDS011;60683;51.730;8.762;2023-02-27T03:52:51;3.05;;;1.15;;
72639;SDS011;60683;51.730;8.762;2023-02-27T03:55:20;5.57;;;1.63;;
72639;SDS011;60683;51.730;8.762;2023-02-27T03:57:50;3.17;;;1.40;;
72639;SDS011;60683;51.730;8.762;2023-02-27T04:00:19;3.33;;;1.48;;
72639;SDS011;60683;51.730;8.762;2023-02-27T04:02:49;3.67;;;1.48;;
72639;SDS011;60683;51.730;8.762;2023-02-27T04:05:17;2.78;;;1.52;;
72639;SDS011;60683;51.730;8.762;2023-02-27T04:07:47;6.45;;;1.85;;
72639;SDS011;60683;51.730;8.762;2023-02-27T04:10:24;3.22;;;2.17;;
72639;SDS011;60683;51.730;8.762;2023-02-27T04:13:05;4.20;;;1.65;;
72639;SDS011;60683;51.730;8.762;2023-02-27T04:18:41;4.45;;;1.45;;
72639;SDS011;60683;51.730;8.762;2023-02-27T04:21:17;2.95;;;1.33;;
72639;SDS011;60683;51.730;8.762;2023-02-27T04:23:51;3.65;;;1.55;;
72639;SDS011;60683;51.730;8.762;2023-02-27T04:26:25;5.00;;;1.35;;
72639;SDS011;60683;51.730;8.762;2023-02-27T04:28:56;2.50;;;1.30;;
72639;SDS011;60683;51.730;8.762;2023-02-27T04:31:28;2.17;;;1.10;;
72639;SDS011;60683;51.730;8.762;2023-02-27T04:33:58;2.88;;;1.50;;
72639;SDS011;60683;51.730;8.762;2023-02-27T04:36:30;2.50;;;1.30;;
72639;SDS011;60683;51.730;8.762;2023-02-27T04:41:30;5.47;;;1.35;;
72639;SDS011;60683;51.730;8.762;2023-02-27T04:44:00;7.20;;;1.40;;
72639;SDS011;60683;51.730;8.762;2023-02-27T04:46:29;3.50;;;1.48;;
72639;SDS011;60683;51.730;8.762;2023-02-27T04:48:59;2.63;;;1.40;;
72639;SDS011;60683;51.730;8.762;2023-02-27T04:51:31;3.53;;;1.48;;
72639;SDS011;60683;51.730;8.762;2023-02-27T04:54:01;3.83;;;1.17;;
72639;SDS011;60683;51.730;8.762;2023-02-27T04:56:34;2.28;;;0.95;;
72639;SDS011;60683;51.730;8.762;2023-02-27T04:59:04;2.95;;;0.65;;
72639;SDS011;60683;51.730;8.762;2023-02-27T05:01:35;1.63;;;0.98;;
72639;SDS011;60683;51.730;8.762;2023-02-27T05:04:04;4.72;;;2.55;;
72639;SDS011;60683;51.730;8.762;2023-02-27T05:06:34;4.05;;;1.00;;
72639;SDS011;60683;51.730;8.762;2023-02-27T05:09:05;2.67;;;1.00;;
72639;SDS011;60683;51.730;8.762;2023-02-27T05:11:37;3.03;;;1.67;;
72639;SDS011;60683;51.730;8.762;2023-02-27T05:14:09;2.60;;;1.35;;
72639;SDS011;60683;51.730;8.762;2023-02-27T05:16:40;2.00;;;1.20;;
72639;SDS011;60683;51.730;8.762;2023-02-27T05:19:09;3.20;;;1.38;;
72639;SDS011;60683;51.730;8.762;2023-02-27T05:21:37;4.57;;;1.45;;
72639;SDS011;60683;51.730;8.762;2023-02-27T05:24:10;4.13;;;1.73;;
72639;SDS011;60683;51.730;8.762;2023-02-27T05:26:45;3.20;;;1.55;;
72639;SDS011;60683;51.730;8.762;2023-02-27T05:29:23;4.68;;;1.65;;
72639;SDS011;60683;51.730;8.762;2023-02-27T05:31:55;3.67;;;1.63;;
72639;SDS011;60683;51.730;8.762;2023-02-27T05:34:28;4.70;;;1.40;;
72639;SDS011;60683;51.730;8.762;2023-02-27T05:37:00;6.85;;;2.03;;
72639;SDS011;60683;51.730;8.762;2023-02-27T05:39:30;5.75;;;1.92;;
72639;SDS011;60683;51.730;8.762;2023-02-27T05:41:59;11.10;;;2.40;;
72639;SDS011;60683;51.730;8.762;2023-02-27T05:44:29;4.55;;;1.42;;
72639;SDS011;60683;51.730;8.762;2023-02-27T05:46:59;2.42;;;1.13;;
72639;SDS011;60683;51.730;8.762;2023-02-27T05:49:31;3.65;;;1.58;;
72639;SDS011;60683;51.730;8.762;2023-02-27T05:52:00;1.92;;;1.00;;
72639;SDS011;60683;51.730;8.762;2023-02-27T05:54:31;6.13;;;1.65;;
72639;SDS011;60683;51.730;8.762;2023-02-27T05:57:02;3.45;;;1.73;;
72639;SDS011;60683;51.730;8.762;2023-02-27T05:59:33;4.93;;;1.98;;
72639;SDS011;60683;51.730;8.762;2023-02-27T06:02:04;6.40;;;2.10;;
72639;SDS011;60683;51.730;8.762;2023-02-27T06:04:31;3.78;;;1.58;;
72639;SDS011;60683;51.730;8.762;2023-02-27T06:06:59;3.28;;;1.65;;
72639;SDS011;60683;51.730;8.762;2023-02-27T06:09:26;4.53;;;1.80;;
72639;SDS011;60683;51.730;8.762;2023-02-27T06:11:54;3.67;;;1.95;;
72639;SDS011;60683;51.730;8.762;2023-02-27T06:14:23;7.43;;;4.13;;
72639;SDS011;60683;51.730;8.762;2023-02-27T06:16:50;5.50;;;2.83;;
72639;SDS011;60683;51.730;8.762;2023-02-27T06:19:18;7.18;;;3.03;;
72639;SDS011;60683;51.730;8.762;2023-02-27T06:21:47;7.40;;;3.25;;
72639;SDS011;60683;51.730;8.762;2023-02-27T06:24:14;4.53;;;1.60;;
72639;SDS011;60683;51.730;8.762;2023-02-27T06:26:42;6.95;;;2.58;;
72639;SDS011;60683;51.730;8.762;2023-02-27T06:29:10;6.30;;;2.40;;
72639;SDS011;60683;51.730;8.762;2023-02-27T06:31:38;5.13;;;2.20;;
72639;SDS011;60683;51.730;8.762;2023-02-27T06:34:06;4.53;;;2.20;;
72639;SDS011;60683;51.730;8.762;2023-02-27T06:36:33;6.05;;;2.38;;
72639;SDS011;60683;51.730;8.762;2023-02-27T06:39:01;5.75;;;2.80;;
72639;SDS011;60683;51.730;8.762;2023-02-27T06:41:29;4.57;;;2.83;;
72639;SDS011;60683;51.730;8.762;2023-02-27T06:43:57;4.13;;;2.42;;
72639;SDS011;60683;51.730;8.762;2023-02-27T06:46:24;5.30;;;2.83;;
72639;SDS011;60683;51.730;8.762;2023-02-27T06:48:53;4.28;;;2.40;;
72639;SDS011;60683;51.730;8.762;2023-02-27T06:51:20;5.50;;;2.72;;
72639;SDS011;60683;51.730;8.762;2023-02-27T06:53:48;4.13;;;2.10;;
72639;SDS011;60683;51.730;8.762;2023-02-27T06:56:15;4.40;;;2.25;;
72639;SDS011;60683;51.730;8.762;2023-02-27T06:58:43;2.17;;;1.15;;
72639;SDS011;60683;51.730;8.762;2023-02-27T07:01:10;4.88;;;1.77;;
72639;SDS011;60683;51.730;8.762;2023-02-27T07:03:39;6.32;;;1.58;;
72639;SDS011;60683;51.730;8.762;2023-02-27T07:06:08;4.07;;;2.05;;
72639;SDS011;60683;51.730;8.762;2023-02-27T07:08:36;1.92;;;1.15;;
72639;SDS011;60683;51.730;8.762;2023-02-27T07:11:03;5.40;;;2.35;;
72639;SDS011;60683;51.730;8.762;2023-02-27T07:13:31;5.32;;;2.78;;
72639;SDS011;60683;51.730;8.762;2023-02-27T07:15:59;4.53;;;2.20;;
72639;SDS011;60683;51.730;8.762;2023-02-27T07:18:26;4.63;;;1.73;;
72639;SDS011;60683;51.730;8.762;2023-02-27T07:20:54;6.15;;;2.83;;
72639;SDS011;60683;51.730;8.762;2023-02-27T07:23:23;7.72;;;2.15;;
72639;SDS011;60683;51.730;8.762;2023-02-27T07:25:50;4.03;;;1.92;;
72639;SDS011;60683;51.730;8.762;2023-02-27T07:28:18;5.03;;;2.15;;
72639;SDS011;60683;51.730;8.762;2023-02-27T07:30:45;3.55;;;1.92;;
72639;SDS011;60683;51.730;8.762;2023-02-27T07:33:13;3.75;;;1.65;;
72639;SDS011;60683;51.730;8.762;2023-02-27T07:35:41;4.22;;;2.20;;
72639;SDS011;60683;51.730;8.762;2023-02-27T07:38:08;5.00;;;2.28;;
72639;SDS011;60683;51.730;8.762;2023-02-27T07:40:37;5.47;;;1.75;;
72639;SDS011;60683;51.730;8.762;2023-02-27T07:43:05;3.47;;;1.48;;
72639;SDS011;60683;51.730;8.762;2023-02-27T07:45:32;5.65;;;2.58;;
72639;SDS011;60683;51.730;8.762;2023-02-27T07:48:00;5.03;;;2.25;;
72639;SDS011;60683;51.730;8.762;2023-02-27T07:50:27;6.05;;;1.70;;
72639;SDS011;60683;51.730;8.762;2023-02-27T07:52:55;4.38;;;1.85;;
72639;SDS011;60683;51.730;8.762;2023-02-27T07:55:22;3.25;;;1.77;;
72639;SDS011;60683;51.730;8.762;2023-02-27T07:57:51;6.05;;;1.90;;
72639;SDS011;60683;51.730;8.762;2023-02-27T08:00:19;4.30;;;2.20;;
72639;SDS011;60683;51.730;8.762;2023-02-27T08:02:47;5.35;;;1.83;;
72639;SDS011;60683;51.730;8.762;2023-02-27T08:05:15;3.70;;;2.00;;
72639;SDS011;60683;51.730;8.762;2023-02-27T08:07:43;2.25;;;1.45;;
72639;SDS011;60683;51.730;8.762;2023-02-27T08:10:11;1.30;;;0.63;;
72639;SDS011;60683;51.730;8.762;2023-02-27T08:12:38;4.30;;;1.58;;
72639;SDS011;60683;51.730;8.762;2023-02-27T08:15:08;3.90;;;1.90;;
72639;SDS011;60683;51.730;8.762;2023-02-27T08:17:36;4.95;;;0.80;;
72639;SDS011;60683;51.730;8.762;2023-02-27T08:20:04;3.58;;;1.20;;
72639;SDS011;60683;51.730;8.762;2023-02-27T08:26:33;3.83;;;2.05;;
72639;SDS011;60683;51.730;8.762;2023-02-27T08:29:01;8.98;;;2.30;;
72639;SDS011;60683;51.730;8.762;2023-02-27T08:31:31;4.45;;;2.25;;
72639;SDS011;60683;51.730;8.762;2023-02-27T08:34:00;4.95;;;2.03;;
72639;SDS011;60683;51.730;8.762;2023-02-27T08:36:28;5.57;;;2.22;;
72639;SDS011;60683;51.730;8.762;2023-02-27T08:38:57;6.53;;;2.33;;
72639;SDS011;60683;51.730;8.762;2023-02-27T08:41:25;3.97;;;1.95;;
72639;SDS011;60683;51.730;8.762;2023-02-27T08:43:53;9.75;;;2.65;;
72639;SDS011;60683;51.730;8.762;2023-02-27T08:46:21;4.10;;;1.70;;
72639;SDS011;60683;51.730;8.762;2023-02-27T08:48:51;7.72;;;2.40;;
72639;SDS011;60683;51.730;8.762;2023-02-27T08:51:19;6.13;;;2.42;;
72639;SDS011;60683;51.730;8.762;2023-02-27T08:53:50;5.32;;;2.00;;
72639;SDS011;60683;51.730;8.762;2023-02-27T08:56:24;4.95;;;1.95;;
72639;SDS011;60683;51.730;8.762;2023-02-27T08:58:53;3.55;;;1.77;;
72639;SDS011;60683;51.730;8.762;2023-02-27T09:01:20;5.75;;;1.95;;
72639;SDS011;60683;51.730;8.762;2023-02-27T09:03:48;5.28;;;1.95;;
72639;SDS011;60683;51.730;8.762;2023-02-27T09:06:17;4.97;;;2.25;;
72639;SDS011;60683;51.730;8.762;2023-02-27T09:08:45;6.13;;;2.13;;
72639;SDS011;60683;51.730;8.762;2023-02-27T09:11:12;4.18;;;1.60;;
72639;SDS011;60683;51.730;8.762;2023-02-27T09:13:40;5.30;;;1.92;;
72639;SDS011;60683;51.730;8.762;2023-02-27T09:16:07;4.47;;;1.80;;
72639;SDS011;60683;51.730;8.762;2023-02-27T09:18:35;6.10;;;1.08;;
72639;SDS011;60683;51.730;8.762;2023-02-27T09:21:02;2.97;;;1.45;;
72639;SDS011;60683;51.730;8.762;2023-02-27T09:23:31;4.03;;;1.58;;
72639;SDS011;60683;51.730;8.762;2023-02-27T09:25:58;4.10;;;1.85;;
72639;SDS011;60683;51.730;8.762;2023-02-27T09:28:26;6.97;;;2.22;;
72639;SDS011;60683;51.730;8.762;2023-02-27T09:30:53;4.13;;;1.20;;
72639;SDS011;60683;51.730;8.762;2023-02-27T09:33:22;2.28;;;0.82;;
72639;SDS011;60683;51.730;8.762;2023-02-27T09:35:51;1.55;;;0.73;;
72639;SDS011;60683;51.730;8.762;2023-02-27T09:38:19;1.00;;;0.50;;
72639;SDS011;60683;51.730;8.762;2023-02-27T09:40:48;0.68;;;0.35;;
72639;SDS011;60683;51.730;8.762;2023-02-27T09:43:17;4.75;;;1.25;;
72639;SDS011;60683;51.730;8.762;2023-02-27T09:45:49;1.65;;;0.75;;
72639;SDS011;60683;51.730;8.762;2023-02-27T09:48:20;1.08;;;0.60;;
72639;SDS011;60683;51.730;8.762;2023-02-27T09:50:52;3.97;;;0.98;;
72639;SDS011;60683;51.730;8.762;2023-02-27T09:53:20;2.35;;;0.90;;
72639;SDS011;60683;51.730;8.762;2023-02-27T09:55:53;1.92;;;0.90;;
72639;SDS011;60683;51.730;8.762;2023-02-27T09:58:34;2.53;;;0.80;;
72639;SDS011;60683;51.730;8.762;2023-02-27T10:01:08;3.67;;;0.55;;
72639;SDS011;60683;51.730;8.762;2023-02-27T10:03:48;2.85;;;0.90;;
72639;SDS011;60683;51.730;8.762;2023-02-27T10:06:36;2.53;;;0.77;;
72639;SDS011;60683;51.730;8.762;2023-02-27T10:09:12;2.08;;;0.90;;
72639;SDS011;60683;51.730;8.762;2023-02-27T10:11:51;1.70;;;0.70;;
72639;SDS011;60683;51.730;8.762;2023-02-27T10:14:25;3.92;;;1.40;;
72639;SDS011;60683;51.730;8.762;2023-02-27T10:16:57;2.60;;;1.17;;
72639;SDS011;60683;51.730;8.762;2023-02-27T10:19:29;3.08;;;1.08;;
72639;SDS011;60683;51.730;8.762;2023-02-27T10:21:58;3.95;;;1.45;;
72639;SDS011;60683;51.730;8.762;2023-02-27T10:24:27;4.40;;;1.05;;
72639;SDS011;60683;51.730;8.762;2023-02-27T10:26:57;2.13;;;0.73;;
72639;SDS011;60683;51.730;8.762;2023-02-27T10:29:27;1.95;;;0.68;;
72639;SDS011;60683;51.730;8.762;2023-02-27T10:31:57;1.55;;;0.73;;
72639;SDS011;60683;51.730;8.762;2023-02-27T10:34:27;0.45;;;0.15;;
72639;SDS011;60683;51.730;8.762;2023-02-27T10:36:56;4.47;;;0.73;;
72639;SDS011;60683;51.730;8.762;2023-02-27T10:39:25;2.28;;;0.75;;
72639;SDS011;60683;51.730;8.762;2023-02-27T10:42:03;2.95;;;1.27;;
72639;SDS011;60683;51.730;8.762;2023-02-27T10:44:33;1.10;;;0.30;;
72639;SDS011;60683;51.730;8.762;2023-02-27T10:47:01;3.65;;;0.82;;
72639;SDS011;60683;51.730;8.762;2023-02-27T10:49:29;3.33;;;1.20;;
72639;SDS011;60683;51.730;8.762;2023-02-27T10:52:04;1.88;;;0.70;;
72639;SDS011;60683;51.730;8.762;2023-02-27T10:54:34;0.15;;;0.15;;
72639;SDS011;60683;51.730;8.762;2023-02-27T10:57:03;3.10;;;0.50;;
72639;SDS011;60683;51.730;8.762;2023-02-27T10:59:48;0.43;;;0.35;;
72639;SDS011;60683;51.730;8.762;2023-02-27T11:02:19;0.90;;;0.30;;
72639;SDS011;60683;51.730;8.762;2023-02-27T11:04:49;1.70;;;0.90;;
72639;SDS011;60683;51.730;8.762;2023-02-27T11:07:25;1.52;;;0.43;;
72639;SDS011;60683;51.730;8.762;2023-02-27T11:09:58;0.52;;;0.22;;
72639;SDS011;60683;51.730;8.762;2023-02-27T11:15:01;4.15;;;0.57;;
72639;SDS011;60683;51.730;8.762;2023-02-27T11:17:29;1.83;;;0.77;;
72639;SDS011;60683;51.730;8.762;2023-02-27T11:19:59;2.33;;;0.40;;
72639;SDS011;60683;51.730;8.762;2023-02-27T11:22:30;2.83;;;0.80;;
72639;SDS011;60683;51.730;8.762;2023-02-27T11:25:09;3.20;;;0.52;;
72639;SDS011;60683;51.730;8.762;2023-02-27T11:27:45;0.82;;;0.38;;
72639;SDS011;60683;51.730;8.762;2023-02-27T11:30:20;2.30;;;0.75;;
72639;SDS011;60683;51.730;8.762;2023-02-27T11:32:49;1.20;;;0.32;;
72639;SDS011;60683;51.730;8.762;2023-02-27T11:35:19;2.30;;;0.63;;
72639;SDS011;60683;51.730;8.762;2023-02-27T11:37:51;3.72;;;0.50;;
72639;SDS011;60683;51.730;8.762;2023-02-27T11:40:20;1.35;;;0.65;;
72639;SDS011;60683;51.730;8.762;2023-02-27T11:42:51;0.82;;;0.32;;
72639;SDS011;60683;51.730;8.762;2023-02-27T11:53:24;0.52;;;0.30;;
72639;SDS011;60683;51.730;8.762;2023-02-27T11:56:07;3.65;;;0.80;;
72639;SDS011;60683;51.730;8.762;2023-02-27T11:58:39;0.22;;;0.13;;
72639;SDS011;60683;51.730;8.762;2023-02-27T12:01:14;1.85;;;0.68;;
72639;SDS011;60683;51.730;8.762;2023-02-27T12:03:46;3.13;;;0.93;;
72639;SDS011;60683;51.730;8.762;2023-02-27T12:08:45;0.95;;;0.47;;
72639;SDS011;60683;51.730;8.762;2023-02-27T12:11:19;1.45;;;0.63;;
72639;SDS011;60683;51.730;8.762;2023-02-27T12:13:52;1.30;;;0.50;;
72639;SDS011;60683;51.730;8.762;2023-02-27T12:16:23;0.98;;;0.35;;
72639;SDS011;60683;51.730;8.762;2023-02-27T12:18:54;2.33;;;1.05;;
72639;SDS011;60683;51.730;8.762;2023-02-27T12:21:25;1.95;;;0.80;;
72639;SDS011;60683;51.730;8.762;2023-02-27T12:23:54;1.65;;;0.68;;
72639;SDS011;60683;51.730;8.762;2023-02-27T12:26:24;2.03;;;0.77;;
72639;SDS011;60683;51.730;8.762;2023-02-27T12:28:55;2.60;;;1.00;;
72639;SDS011;60683;51.730;8.762;2023-02-27T12:31:27;0.88;;;0.52;;
72639;SDS011;60683;51.730;8.762;2023-02-27T12:34:00;4.38;;;1.30;;
72639;SDS011;60683;51.730;8.762;2023-02-27T12:36:30;4.40;;;0.95;;
72639;SDS011;60683;51.730;8.762;2023-02-27T12:38:58;1.17;;;0.50;;
72639;SDS011;60683;51.730;8.762;2023-02-27T12:41:33;3.17;;;1.13;;
72639;SDS011;60683;51.730;8.762;2023-02-27T12:44:15;4.43;;;0.98;;
72639;SDS011;60683;51.730;8.762;2023-02-27T12:46:48;2.15;;;0.90;;
72639;SDS011;60683;51.730;8.762;2023-02-27T12:49:24;5.38;;;1.08;;
72639;SDS011;60683;51.730;8.762;2023-02-27T12:51:59;2.28;;;0.80;;
72639;SDS011;60683;51.730;8.762;2023-02-27T12:54:34;2.25;;;0.80;;
72639;SDS011;60683;51.730;8.762;2023-02-27T12:57:11;3.42;;;1.20;;
72639;SDS011;60683;51.730;8.762;2023-02-27T12:59:59;1.45;;;0.43;;
72639;SDS011;60683;51.730;8.762;2023-02-27T13:05:24;0.98;;;0.35;;
72639;SDS011;60683;51.730;8.762;2023-02-27T13:07:56;1.60;;;0.70;;
72639;SDS011;60683;51.730;8.762;2023-02-27T13:10:29;2.10;;;0.45;;
72639;SDS011;60683;51.730;8.762;2023-02-27T13:12:59;2.53;;;0.85;;
72639;SDS011;60683;51.730;8.762;2023-02-27T13:15:32;0.55;;;0.40;;
72639;SDS011;60683;51.730;8.762;2023-02-27T13:18:07;3.95;;;0.90;;
72639;SDS011;60683;51.730;8.762;2023-02-27T13:20:52;2.92;;;1.00;;
72639;SDS011;60683;51.730;8.762;2023-02-27T13:23:22;1.77;;;0.30;;
72639;SDS011;60683;51.730;8.762;2023-02-27T13:25:52;0.80;;;0.50;;
72639;SDS011;60683;51.730;8.762;2023-02-27T13:28:22;4.18;;;1.52;;
72639;SDS011;60683;51.730;8.762;2023-02-27T13:31:00;5.22;;;1.92;;
72639;SDS011;60683;51.730;8.762;2023-02-27T13:33:32;2.17;;;0.68;;
72639;SDS011;60683;51.730;8.762;2023-02-27T13:36:04;3.28;;;0.90;;
72639;SDS011;60683;51.730;8.762;2023-02-27T13:38:40;0.88;;;0.32;;
72639;SDS011;60683;51.730;8.762;2023-02-27T13:53:16;1.48;;;0.75;;
72639;SDS011;60683;51.730;8.762;2023-02-27T13:55:45;0.35;;;0.20;;
72639;SDS011;60683;51.730;8.762;2023-02-27T13:58:18;1.23;;;0.55;;
72639;SDS011;60683;51.730;8.762;2023-02-27T14:00:53;0.68;;;0.25;;
72639;SDS011;60683;51.730;8.762;2023-02-27T14:03:22;1.02;;;0.50;;
72639;SDS011;60683;51.730;8.762;2023-02-27T14:05:54;3.03;;;0.60;;
72639;SDS011;60683;51.730;8.762;2023-02-27T14:08:23;1.52;;;0.55;;
72639;SDS011;60683;51.730;8.762;2023-02-27T14:10:55;1.55;;;1.08;;
72639;SDS011;60683;51.730;8.762;2023-02-27T14:19:27;1.13;;;0.50;;
72639;SDS011;60683;51.730;8.762;2023-02-27T14:25:30;1.10;;;0.40;;
72639;SDS011;60683;51.730;8.762;2023-02-27T14:27:59;0.47;;;0.30;;
72639;SDS011;60683;51.730;8.762;2023-02-27T14:30:32;3.15;;;0.47;;
72639;SDS011;60683;51.730;8.762;2023-02-27T14:33:04;2.33;;;0.88;;
72639;SDS011;60683;51.730;8.762;2023-02-27T14:38:07;0.55;;;0.45;;
72639;SDS011;60683;51.730;8.762;2023-02-27T14:40:39;0.77;;;0.43;;
72639;SDS011;60683;51.730;8.762;2023-02-27T14:43:16;1.17;;;0.68;;
72639;SDS011;60683;51.730;8.762;2023-02-27T14:45:48;2.65;;;0.63;;
72639;SDS011;60683;51.730;8.762;2023-02-27T14:48:18;2.97;;;1.10;;
72639;SDS011;60683;51.730;8.762;2023-02-27T14:50:51;1.00;;;0.65;;
72639;SDS011;60683;51.730;8.762;2023-02-27T14:53:21;0.85;;;0.55;;
72639;SDS011;60683;51.730;8.762;2023-02-27T14:55:54;3.10;;;0.95;;
72639;SDS011;60683;51.730;8.762;2023-02-27T14:58:23;3.97;;;0.85;;
72639;SDS011;60683;51.730;8.762;2023-02-27T15:00:56;1.13;;;0.25;;
72639;SDS011;60683;51.730;8.762;2023-02-27T15:03:28;1.35;;;0.88;;
72639;SDS011;60683;51.730;8.762;2023-02-27T15:06:00;1.98;;;0.75;;
72639;SDS011;60683;51.730;8.762;2023-02-27T15:08:30;1.17;;;0.63;;
72639;SDS011;60683;51.730;8.762;2023-02-27T15:11:00;2.20;;;0.90;;
72639;SDS011;60683;51.730;8.762;2023-02-27T15:13:28;3.60;;;0.70;;
72639;SDS011;60683;51.730;8.762;2023-02-27T15:18:47;2.90;;;0.77;;
72639;SDS011;60683;51.730;8.762;2023-02-27T15:21:16;0.98;;;0.43;;
72639;SDS011;60683;51.730;8.762;2023-02-27T15:23:52;2.70;;;1.00;;
72639;SDS011;60683;51.730;8.762;2023-02-27T15:26:21;0.70;;;0.40;;
72639;SDS011;60683;51.730;8.762;2023-02-27T15:28:49;1.23;;;0.43;;
72639;SDS011;60683;51.730;8.762;2023-02-27T15:31:18;9.93;;;1.73;;
72639;SDS011;60683;51.730;8.762;2023-02-27T15:33:47;2.60;;;1.15;;
72639;SDS011;60683;51.730;8.762;2023-02-27T15:36:17;2.85;;;1.10;;
72639;SDS011;60683;51.730;8.762;2023-02-27T15:38:46;1.83;;;0.57;;
72639;SDS011;60683;51.730;8.762;2023-02-27T15:41:31;0.85;;;0.50;;
72639;SDS011;60683;51.730;8.762;2023-02-27T15:44:00;4.45;;;0.82;;
72639;SDS011;60683;51.730;8.762;2023-02-27T15:46:28;1.40;;;0.57;;
72639;SDS011;60683;51.730;8.762;2023-02-27T15:48:56;0.82;;;0.40;;
72639;SDS011;60683;51.730;8.762;2023-02-27T15:51:24;1.40;;;0.47;;
72639;SDS011;60683;51.730;8.762;2023-02-27T15:53:52;0.75;;;0.43;;
72639;SDS011;60683;51.730;8.762;2023-02-27T15:56:22;1.35;;;0.52;;
72639;SDS011;60683;51.730;8.762;2023-02-27T15:58:53;1.10;;;0.45;;
72639;SDS011;60683;51.730;8.762;2023-02-27T16:01:22;1.55;;;0.60;;
72639;SDS011;60683;51.730;8.762;2023-02-27T16:03:51;0.60;;;0.35;;
72639;SDS011;60683;51.730;8.762;2023-02-27T16:06:20;0.50;;;0.20;;
72639;SDS011;60683;51.730;8.762;2023-02-27T16:08:50;1.10;;;0.60;;
72639;SDS011;60683;51.730;8.762;2023-02-27T16:11:19;2.20;;;0.82;;
72639;SDS011;60683;51.730;8.762;2023-02-27T16:13:47;1.73;;;0.50;;
72639;SDS011;60683;51.730;8.762;2023-02-27T16:16:23;1.10;;;0.60;;
72639;SDS011;60683;51.730;8.762;2023-02-27T16:18:53;0.68;;;0.25;;